sensor_id;sensor_type;location;lat;lon;timestamp;P1;durP1;ratioP1;P2;durP2;ratioP2
59770;SDS011;45649;53.014;6.600;2023-03-01T00:01:25;19.00;;;17.00;;
59770;SDS011;45649;53.014;6.600;2023-03-01T00:03:55;19.20;;;17.20;;
59770;SDS011;45649;53.014;6.600;2023-03-01T00:06:21;19.30;;;17.30;;
59770;SDS011;45649;53.014;6.600;2023-03-01T00:08:50;17.60;;;15.90;;
59770;SDS011;45649;53.014;6.600;2023-03-01T00:11:24;18.00;;;16.33;;
59770;SDS011;45649;53.014;6.600;2023-03-01T00:13:52;16.87;;;15.27;;
59770;SDS011;45649;53.014;6.600;2023-03-01T00:16:20;16.37;;;14.73;;
59770;SDS011;45649;53.014;6.600;2023-03-01T00:18:48;16.67;;;14.87;;
59770;SDS011;45649;53.014;6.600;2023-03-01T00:21:15;16.10;;;14.57;;
59770;SDS011;45649;53.014;6.600;2023-03-01T00:23:41;14.47;;;13.07;;
59770;SDS011;45649;53.014;6.600;2023-03-01T00:26:10;15.47;;;14.07;;
59770;SDS011;45649;53.014;6.600;2023-03-01T00:28:38;15.93;;;14.53;;
59770;SDS011;45649;53.014;6.600;2023-03-01T00:31:05;17.03;;;15.40;;
59770;SDS011;45649;53.014;6.600;2023-03-01T00:33:31;15.63;;;14.13;;
59770;SDS011;45649;53.014;6.600;2023-03-01T00:35:58;16.40;;;14.70;;
59770;SDS011;45649;53.014;6.600;2023-03-01T00:38:24;16.23;;;14.53;;
59770;SDS011;45649;53.014;6.600;2023-03-01T00:40:50;15.43;;;14.03;;
59770;SDS011;45649;53.014;6.600;2023-03-01T00:43:17;17.03;;;15.20;;
59770;SDS011;45649;53.014;6.600;2023-03-01T00:45:43;17.23;;;15.53;;
59770;SDS011;45649;53.014;6.600;2023-03-01T00:48:09;18.20;;;16.30;;
59770;SDS011;45649;53.014;6.600;2023-03-01T00:50:38;28.63;;;17.80;;
59770;SDS011;45649;53.014;6.600;2023-03-01T00:53:05;52.93;;;17.80;;
59770;SDS011;45649;53.014;6.600;2023-03-01T00:55:31;78.77;;;18.53;;
59770;SDS011;45649;53.014;6.600;2023-03-01T00:57:57;60.77;;;18.03;;
59770;SDS011;45649;53.014;6.600;2023-03-01T01:00:22;95.63;;;19.33;;
59770;SDS011;45649;53.014;6.600;2023-03-01T01:02:48;76.33;;;19.10;;
59770;SDS011;45649;53.014;6.600;2023-03-01T01:05:14;118.03;;;20.10;;
59770;SDS011;45649;53.014;6.600;2023-03-01T01:07:46;118.90;;;20.43;;
59770;SDS011;45649;53.014;6.600;2023-03-01T01:10:13;114.87;;;19.43;;
59770;SDS011;45649;53.014;6.600;2023-03-01T01:12:42;113.70;;;19.83;;
59770;SDS011;45649;53.014;6.600;2023-03-01T01:15:09;56.97;;;18.93;;
59770;SDS011;45649;53.014;6.600;2023-03-01T01:17:38;53.00;;;18.13;;
59770;SDS011;45649;53.014;6.600;2023-03-01T01:20:03;35.33;;;17.63;;
59770;SDS011;45649;53.014;6.600;2023-03-01T01:22:29;42.93;;;18.40;;
59770;SDS011;45649;53.014;6.600;2023-03-01T01:24:55;61.77;;;19.03;;
59770;SDS011;45649;53.014;6.600;2023-03-01T01:27:21;75.97;;;20.20;;
59770;SDS011;45649;53.014;6.600;2023-03-01T01:29:46;46.53;;;19.33;;
59770;SDS011;45649;53.014;6.600;2023-03-01T01:32:12;35.30;;;18.83;;
59770;SDS011;45649;53.014;6.600;2023-03-01T01:34:38;32.93;;;17.60;;
59770;SDS011;45649;53.014;6.600;2023-03-01T01:37:04;26.17;;;17.33;;
59770;SDS011;45649;53.014;6.600;2023-03-01T01:39:33;30.90;;;17.00;;
59770;SDS011;45649;53.014;6.600;2023-03-01T01:42:00;21.20;;;16.70;;
59770;SDS011;45649;53.014;6.600;2023-03-01T01:44:27;18.90;;;17.00;;
59770;SDS011;45649;53.014;6.600;2023-03-01T01:49:24;17.90;;;16.20;;
59770;SDS011;45649;53.014;6.600;2023-03-01T01:52:07;17.97;;;16.17;;
59770;SDS011;45649;53.014;6.600;2023-03-01T01:54:46;18.10;;;16.20;;
59770;SDS011;45649;53.014;6.600;2023-03-01T01:57:16;18.33;;;16.43;;
59770;SDS011;45649;53.014;6.600;2023-03-01T01:59:45;20.57;;;18.23;;
59770;SDS011;45649;53.014;6.600;2023-03-01T02:02:15;41.93;;;18.13;;
59770;SDS011;45649;53.014;6.600;2023-03-01T02:04:41;20.77;;;18.53;;
59770;SDS011;45649;53.014;6.600;2023-03-01T02:07:14;21.43;;;19.23;;
59770;SDS011;45649;53.014;6.600;2023-03-01T02:09:43;19.57;;;17.57;;
59770;SDS011;45649;53.014;6.600;2023-03-01T02:12:12;19.47;;;17.37;;
59770;SDS011;45649;53.014;6.600;2023-03-01T02:14:42;20.20;;;18.20;;
59770;SDS011;45649;53.014;6.600;2023-03-01T02:17:08;20.27;;;18.27;;
59770;SDS011;45649;53.014;6.600;2023-03-01T02:22:13;31.50;;;19.13;;
59770;SDS011;45649;53.014;6.600;2023-03-01T02:27:45;41.47;;;18.87;;
59770;SDS011;45649;53.014;6.600;2023-03-01T02:30:26;22.23;;;18.53;;
59770;SDS011;45649;53.014;6.600;2023-03-01T02:32:54;29.93;;;18.77;;
59770;SDS011;45649;53.014;6.600;2023-03-01T02:35:36;32.17;;;18.07;;
59770;SDS011;45649;53.014;6.600;2023-03-01T02:38:03;36.40;;;17.07;;
59770;SDS011;45649;53.014;6.600;2023-03-01T02:40:33;56.50;;;17.87;;
59770;SDS011;45649;53.014;6.600;2023-03-01T02:43:01;29.50;;;16.93;;
59770;SDS011;45649;53.014;6.600;2023-03-01T02:45:29;18.43;;;16.57;;
59770;SDS011;45649;53.014;6.600;2023-03-01T02:47:55;18.43;;;16.53;;
59770;SDS011;45649;53.014;6.600;2023-03-01T02:55:52;17.50;;;15.80;;
59770;SDS011;45649;53.014;6.600;2023-03-01T02:58:18;17.27;;;15.67;;
59770;SDS011;45649;53.014;6.600;2023-03-01T03:00:44;16.83;;;15.33;;
59770;SDS011;45649;53.014;6.600;2023-03-01T03:03:15;16.50;;;15.00;;
59770;SDS011;45649;53.014;6.600;2023-03-01T03:05:44;16.40;;;14.90;;
59770;SDS011;45649;53.014;6.600;2023-03-01T03:08:10;16.63;;;15.03;;
59770;SDS011;45649;53.014;6.600;2023-03-01T03:10:37;16.80;;;15.30;;
59770;SDS011;45649;53.014;6.600;2023-03-01T03:13:14;16.53;;;15.03;;
59770;SDS011;45649;53.014;6.600;2023-03-01T03:15:40;16.20;;;14.70;;
59770;SDS011;45649;53.014;6.600;2023-03-01T03:18:08;16.80;;;15.30;;
59770;SDS011;45649;53.014;6.600;2023-03-01T03:20:36;15.87;;;14.40;;
59770;SDS011;45649;53.014;6.600;2023-03-01T03:23:03;16.17;;;14.67;;
59770;SDS011;45649;53.014;6.600;2023-03-01T03:25:29;16.37;;;14.87;;
59770;SDS011;45649;53.014;6.600;2023-03-01T03:27:55;16.03;;;14.53;;
59770;SDS011;45649;53.014;6.600;2023-03-01T03:30:22;17.23;;;15.63;;
59770;SDS011;45649;53.014;6.600;2023-03-01T03:32:49;16.20;;;14.80;;
59770;SDS011;45649;53.014;6.600;2023-03-01T03:35:25;16.83;;;15.23;;
59770;SDS011;45649;53.014;6.600;2023-03-01T03:37:56;16.60;;;15.00;;
59770;SDS011;45649;53.014;6.600;2023-03-01T03:40:26;17.30;;;15.67;;
59770;SDS011;45649;53.014;6.600;2023-03-01T03:43:03;17.83;;;16.13;;
59770;SDS011;45649;53.014;6.600;2023-03-01T03:45:41;18.07;;;16.27;;
59770;SDS011;45649;53.014;6.600;2023-03-01T03:48:08;17.33;;;15.53;;
59770;SDS011;45649;53.014;6.600;2023-03-01T03:50:35;17.20;;;15.50;;
59770;SDS011;45649;53.014;6.600;2023-03-01T03:53:02;17.33;;;15.80;;
59770;SDS011;45649;53.014;6.600;2023-03-01T03:55:29;16.37;;;14.87;;
59770;SDS011;45649;53.014;6.600;2023-03-01T03:57:57;16.53;;;15.03;;
59770;SDS011;45649;53.014;6.600;2023-03-01T04:00:27;15.90;;;14.40;;
59770;SDS011;45649;53.014;6.600;2023-03-01T04:02:53;16.57;;;15.07;;
59770;SDS011;45649;53.014;6.600;2023-03-01T04:05:21;16.33;;;14.83;;
59770;SDS011;45649;53.014;6.600;2023-03-01T04:07:47;17.23;;;15.63;;
59770;SDS011;45649;53.014;6.600;2023-03-01T04:10:17;18.20;;;16.43;;
59770;SDS011;45649;53.014;6.600;2023-03-01T04:12:43;18.73;;;15.63;;
59770;SDS011;45649;53.014;6.600;2023-03-01T04:15:10;20.77;;;15.83;;
59770;SDS011;45649;53.014;6.600;2023-03-01T04:17:42;19.23;;;16.17;;
59770;SDS011;45649;53.014;6.600;2023-03-01T04:20:16;17.53;;;15.87;;
59770;SDS011;45649;53.014;6.600;2023-03-01T04:22:50;16.67;;;15.07;;
59770;SDS011;45649;53.014;6.600;2023-03-01T04:25:39;17.07;;;15.47;;
59770;SDS011;45649;53.014;6.600;2023-03-01T04:28:05;16.63;;;15.13;;
59770;SDS011;45649;53.014;6.600;2023-03-01T04:30:32;25.97;;;16.43;;
59770;SDS011;45649;53.014;6.600;2023-03-01T04:33:04;18.00;;;16.23;;
59770;SDS011;45649;53.014;6.600;2023-03-01T04:35:31;17.60;;;15.90;;
59770;SDS011;45649;53.014;6.600;2023-03-01T04:37:57;18.50;;;16.60;;
59770;SDS011;45649;53.014;6.600;2023-03-01T04:40:23;17.97;;;16.17;;
59770;SDS011;45649;53.014;6.600;2023-03-01T04:42:49;18.03;;;16.27;;
59770;SDS011;45649;53.014;6.600;2023-03-01T04:45:15;17.60;;;16.00;;
59770;SDS011;45649;53.014;6.600;2023-03-01T04:47:41;17.10;;;15.50;;
59770;SDS011;45649;53.014;6.600;2023-03-01T04:50:10;16.47;;;14.90;;
59770;SDS011;45649;53.014;6.600;2023-03-01T04:52:37;16.43;;;14.77;;
59770;SDS011;45649;53.014;6.600;2023-03-01T04:55:03;16.60;;;14.90;;
59770;SDS011;45649;53.014;6.600;2023-03-01T04:57:30;16.00;;;14.50;;
59770;SDS011;45649;53.014;6.600;2023-03-01T04:59:56;15.63;;;14.13;;
59770;SDS011;45649;53.014;6.600;2023-03-01T05:02:22;14.97;;;13.63;;
59770;SDS011;45649;53.014;6.600;2023-03-01T05:04:48;15.60;;;14.20;;
59770;SDS011;45649;53.014;6.600;2023-03-01T05:07:14;14.87;;;13.57;;
59770;SDS011;45649;53.014;6.600;2023-03-01T05:09:47;15.43;;;14.03;;
59770;SDS011;45649;53.014;6.600;2023-03-01T05:12:14;14.77;;;13.47;;
59770;SDS011;45649;53.014;6.600;2023-03-01T05:14:40;14.77;;;13.37;;
59770;SDS011;45649;53.014;6.600;2023-03-01T05:17:06;14.77;;;13.47;;
59770;SDS011;45649;53.014;6.600;2023-03-01T05:19:33;14.27;;;12.97;;
59770;SDS011;45649;53.014;6.600;2023-03-01T05:21:59;14.47;;;13.17;;
59770;SDS011;45649;53.014;6.600;2023-03-01T05:24:31;14.80;;;13.43;;
59770;SDS011;45649;53.014;6.600;2023-03-01T05:26:58;15.13;;;13.73;;
59770;SDS011;45649;53.014;6.600;2023-03-01T05:29:25;14.27;;;12.97;;
59770;SDS011;45649;53.014;6.600;2023-03-01T05:31:53;14.40;;;13.17;;
59770;SDS011;45649;53.014;6.600;2023-03-01T05:34:24;13.90;;;12.70;;
59770;SDS011;45649;53.014;6.600;2023-03-01T05:36:51;14.27;;;13.00;;
59770;SDS011;45649;53.014;6.600;2023-03-01T05:39:22;14.70;;;13.37;;
59770;SDS011;45649;53.014;6.600;2023-03-01T05:41:51;13.67;;;12.57;;
59770;SDS011;45649;53.014;6.600;2023-03-01T05:44:18;12.97;;;11.80;;
59770;SDS011;45649;53.014;6.600;2023-03-01T05:46:45;12.43;;;11.43;;
59770;SDS011;45649;53.014;6.600;2023-03-01T05:49:11;13.30;;;12.20;;
59770;SDS011;45649;53.014;6.600;2023-03-01T05:51:41;13.27;;;12.17;;
59770;SDS011;45649;53.014;6.600;2023-03-01T05:54:11;13.17;;;12.07;;
59770;SDS011;45649;53.014;6.600;2023-03-01T05:56:36;14.75;;;13.55;;
59770;SDS011;45649;53.014;6.600;2023-03-01T05:59:03;13.20;;;12.10;;
59770;SDS011;45649;53.014;6.600;2023-03-01T06:01:30;13.30;;;12.10;;
59770;SDS011;45649;53.014;6.600;2023-03-01T06:03:56;13.85;;;12.75;;
59770;SDS011;45649;53.014;6.600;2023-03-01T06:06:22;12.73;;;11.63;;
59770;SDS011;45649;53.014;6.600;2023-03-01T06:08:49;11.77;;;10.80;;
59770;SDS011;45649;53.014;6.600;2023-03-01T06:11:15;12.60;;;11.40;;
59770;SDS011;45649;53.014;6.600;2023-03-01T06:13:44;11.90;;;10.90;;
59770;SDS011;45649;53.014;6.600;2023-03-01T06:16:11;12.03;;;11.03;;
59770;SDS011;45649;53.014;6.600;2023-03-01T06:18:37;12.77;;;11.67;;
59770;SDS011;45649;53.014;6.600;2023-03-01T06:21:04;12.00;;;10.97;;
59770;SDS011;45649;53.014;6.600;2023-03-01T06:23:31;12.80;;;11.70;;
59770;SDS011;45649;53.014;6.600;2023-03-01T06:25:56;11.93;;;10.83;;
59770;SDS011;45649;53.014;6.600;2023-03-01T06:28:22;12.07;;;11.07;;
59770;SDS011;45649;53.014;6.600;2023-03-01T06:30:49;12.00;;;11.00;;
59770;SDS011;45649;53.014;6.600;2023-03-01T06:33:15;12.33;;;11.33;;
59770;SDS011;45649;53.014;6.600;2023-03-01T06:35:41;12.07;;;11.07;;
59770;SDS011;45649;53.014;6.600;2023-03-01T06:38:06;13.00;;;11.90;;
59770;SDS011;45649;53.014;6.600;2023-03-01T06:40:32;12.77;;;11.67;;
59770;SDS011;45649;53.014;6.600;2023-03-01T06:43:00;12.50;;;11.50;;
59770;SDS011;45649;53.014;6.600;2023-03-01T06:45:26;13.10;;;12.00;;
59770;SDS011;45649;53.014;6.600;2023-03-01T06:47:52;13.03;;;11.93;;
59770;SDS011;45649;53.014;6.600;2023-03-01T06:50:18;13.37;;;12.27;;
59770;SDS011;45649;53.014;6.600;2023-03-01T06:52:43;12.90;;;11.70;;
59770;SDS011;45649;53.014;6.600;2023-03-01T06:55:10;12.37;;;11.27;;
59770;SDS011;45649;53.014;6.600;2023-03-01T06:57:37;12.87;;;11.77;;
59770;SDS011;45649;53.014;6.600;2023-03-01T07:00:03;13.30;;;12.10;;
59770;SDS011;45649;53.014;6.600;2023-03-01T07:02:29;13.27;;;12.10;;
59770;SDS011;45649;53.014;6.600;2023-03-01T07:04:55;12.87;;;11.77;;
59770;SDS011;45649;53.014;6.600;2023-03-01T07:07:21;13.23;;;12.03;;
59770;SDS011;45649;53.014;6.600;2023-03-01T07:09:48;15.03;;;13.83;;
59770;SDS011;45649;53.014;6.600;2023-03-01T07:12:14;13.70;;;12.50;;
59770;SDS011;45649;53.014;6.600;2023-03-01T07:14:40;13.43;;;12.17;;
59770;SDS011;45649;53.014;6.600;2023-03-01T07:17:06;13.23;;;12.10;;
59770;SDS011;45649;53.014;6.600;2023-03-01T07:19:32;12.90;;;11.80;;
59770;SDS011;45649;53.014;6.600;2023-03-01T07:21:58;12.70;;;11.60;;
59770;SDS011;45649;53.014;6.600;2023-03-01T07:24:23;13.90;;;12.70;;
59770;SDS011;45649;53.014;6.600;2023-03-01T07:26:49;13.23;;;12.03;;
59770;SDS011;45649;53.014;6.600;2023-03-01T07:29:16;13.00;;;11.70;;
59770;SDS011;45649;53.014;6.600;2023-03-01T07:31:42;14.47;;;13.07;;
59770;SDS011;45649;53.014;6.600;2023-03-01T07:34:09;14.10;;;12.87;;
59770;SDS011;45649;53.014;6.600;2023-03-01T07:36:35;14.27;;;12.77;;
59770;SDS011;45649;53.014;6.600;2023-03-01T07:39:01;15.13;;;13.60;;
59770;SDS011;45649;53.014;6.600;2023-03-01T07:41:28;14.43;;;13.13;;
59770;SDS011;45649;53.014;6.600;2023-03-01T07:43:54;13.83;;;12.63;;
59770;SDS011;45649;53.014;6.600;2023-03-01T07:46:20;14.83;;;13.33;;
59770;SDS011;45649;53.014;6.600;2023-03-01T07:48:46;15.00;;;13.67;;
59770;SDS011;45649;53.014;6.600;2023-03-01T07:51:12;16.03;;;14.40;;
59770;SDS011;45649;53.014;6.600;2023-03-01T07:53:38;15.10;;;13.63;;
59770;SDS011;45649;53.014;6.600;2023-03-01T07:56:06;15.47;;;13.97;;
59770;SDS011;45649;53.014;6.600;2023-03-01T07:58:34;16.27;;;14.73;;
59770;SDS011;45649;53.014;6.600;2023-03-01T08:01:04;17.40;;;15.73;;
59770;SDS011;45649;53.014;6.600;2023-03-01T08:03:33;17.30;;;15.37;;
59770;SDS011;45649;53.014;6.600;2023-03-01T08:06:00;17.77;;;15.97;;
59770;SDS011;45649;53.014;6.600;2023-03-01T08:08:26;19.07;;;17.17;;
59770;SDS011;45649;53.014;6.600;2023-03-01T08:10:55;18.73;;;16.93;;
59770;SDS011;45649;53.014;6.600;2023-03-01T08:13:22;20.37;;;18.27;;
59770;SDS011;45649;53.014;6.600;2023-03-01T08:15:48;20.47;;;18.27;;
59770;SDS011;45649;53.014;6.600;2023-03-01T08:18:14;21.10;;;18.73;;
59770;SDS011;45649;53.014;6.600;2023-03-01T08:20:44;26.52;;;23.83;;
59770;SDS011;45649;53.014;6.600;2023-03-01T08:23:10;24.97;;;22.27;;
59770;SDS011;45649;53.014;6.600;2023-03-01T08:25:36;28.63;;;25.33;;
59770;SDS011;45649;53.014;6.600;2023-03-01T08:28:02;27.53;;;23.47;;
59770;SDS011;45649;53.014;6.600;2023-03-01T08:30:28;29.40;;;23.80;;
59770;SDS011;45649;53.014;6.600;2023-03-01T08:32:54;29.33;;;24.80;;
59770;SDS011;45649;53.014;6.600;2023-03-01T08:35:20;29.27;;;23.40;;
59770;SDS011;45649;53.014;6.600;2023-03-01T08:37:47;29.53;;;23.37;;
59770;SDS011;45649;53.014;6.600;2023-03-01T08:40:13;27.70;;;23.67;;
59770;SDS011;45649;53.014;6.600;2023-03-01T08:42:39;28.40;;;23.70;;
59770;SDS011;45649;53.014;6.600;2023-03-01T08:45:08;31.87;;;23.63;;
59770;SDS011;45649;53.014;6.600;2023-03-01T08:47:35;31.50;;;24.23;;
59770;SDS011;45649;53.014;6.600;2023-03-01T08:50:01;31.27;;;25.17;;
59770;SDS011;45649;53.014;6.600;2023-03-01T08:52:27;33.53;;;25.67;;
59770;SDS011;45649;53.014;6.600;2023-03-01T08:54:55;30.43;;;24.67;;
59770;SDS011;45649;53.014;6.600;2023-03-01T08:57:21;33.80;;;27.07;;
59770;SDS011;45649;53.014;6.600;2023-03-01T08:59:47;33.13;;;27.37;;
59770;SDS011;45649;53.014;6.600;2023-03-01T09:02:14;39.60;;;28.57;;
59770;SDS011;45649;53.014;6.600;2023-03-01T09:04:42;38.17;;;28.07;;
59770;SDS011;45649;53.014;6.600;2023-03-01T09:07:08;37.43;;;28.90;;
59770;SDS011;45649;53.014;6.600;2023-03-01T09:09:34;36.43;;;29.50;;
59770;SDS011;45649;53.014;6.600;2023-03-01T09:12:00;35.30;;;27.30;;
59770;SDS011;45649;53.014;6.600;2023-03-01T09:14:26;43.77;;;31.87;;
59770;SDS011;45649;53.014;6.600;2023-03-01T09:16:52;44.00;;;30.97;;
59770;SDS011;45649;53.014;6.600;2023-03-01T09:19:17;40.70;;;30.50;;
59770;SDS011;45649;53.014;6.600;2023-03-01T09:21:43;42.80;;;31.37;;
59770;SDS011;45649;53.014;6.600;2023-03-01T09:24:17;42.47;;;30.73;;
59770;SDS011;45649;53.014;6.600;2023-03-01T09:26:44;45.13;;;31.33;;
59770;SDS011;45649;53.014;6.600;2023-03-01T09:29:11;43.80;;;31.27;;
59770;SDS011;45649;53.014;6.600;2023-03-01T09:31:37;43.63;;;32.03;;
59770;SDS011;45649;53.014;6.600;2023-03-01T09:34:03;46.90;;;32.57;;
59770;SDS011;45649;53.014;6.600;2023-03-01T09:36:29;42.77;;;31.83;;
59770;SDS011;45649;53.014;6.600;2023-03-01T09:38:54;44.20;;;32.37;;
59770;SDS011;45649;53.014;6.600;2023-03-01T09:47:16;44.50;;;29.43;;
59770;SDS011;45649;53.014;6.600;2023-03-01T09:52:51;38.83;;;27.93;;
59770;SDS011;45649;53.014;6.600;2023-03-01T09:56:19;38.13;;;28.87;;
59770;SDS011;45649;53.014;6.600;2023-03-01T10:09:32;35.10;;;26.17;;
59770;SDS011;45649;53.014;6.600;2023-03-01T10:12:00;37.17;;;26.37;;
59770;SDS011;45649;53.014;6.600;2023-03-01T10:19:51;34.27;;;26.20;;
59770;SDS011;45649;53.014;6.600;2023-03-01T10:22:24;34.23;;;25.00;;
59770;SDS011;45649;53.014;6.600;2023-03-01T10:24:53;34.30;;;26.00;;
59770;SDS011;45649;53.014;6.600;2023-03-01T10:27:29;31.93;;;24.80;;
59770;SDS011;45649;53.014;6.600;2023-03-01T10:33:03;32.83;;;25.07;;
59770;SDS011;45649;53.014;6.600;2023-03-01T10:35:42;31.07;;;24.53;;
59770;SDS011;45649;53.014;6.600;2023-03-01T10:38:09;31.33;;;24.80;;
59770;SDS011;45649;53.014;6.600;2023-03-01T10:40:36;31.37;;;24.13;;
59770;SDS011;45649;53.014;6.600;2023-03-01T10:43:23;31.60;;;24.10;;
59770;SDS011;45649;53.014;6.600;2023-03-01T10:45:50;30.90;;;24.90;;
59770;SDS011;45649;53.014;6.600;2023-03-01T10:50:51;31.10;;;24.33;;
59770;SDS011;45649;53.014;6.600;2023-03-01T10:58:32;30.40;;;23.70;;
59770;SDS011;45649;53.014;6.600;2023-03-01T11:01:00;27.40;;;21.57;;
59770;SDS011;45649;53.014;6.600;2023-03-01T11:03:31;26.60;;;21.47;;
59770;SDS011;45649;53.014;6.600;2023-03-01T11:08:32;24.33;;;20.17;;
59770;SDS011;45649;53.014;6.600;2023-03-01T11:11:07;26.13;;;21.47;;
59770;SDS011;45649;53.014;6.600;2023-03-01T11:16:17;26.23;;;21.00;;
59770;SDS011;45649;53.014;6.600;2023-03-01T11:19:00;24.60;;;20.17;;
59770;SDS011;45649;53.014;6.600;2023-03-01T11:24:15;20.93;;;17.70;;
59770;SDS011;45649;53.014;6.600;2023-03-01T11:26:43;23.77;;;19.13;;
59770;SDS011;45649;53.014;6.600;2023-03-01T11:29:46;24.23;;;19.47;;
59770;SDS011;45649;53.014;6.600;2023-03-01T11:32:07;21.30;;;17.87;;
59770;SDS011;45649;53.014;6.600;2023-03-01T11:34:42;24.40;;;19.53;;
59770;SDS011;45649;53.014;6.600;2023-03-01T11:40:17;26.00;;;20.37;;
59770;SDS011;45649;53.014;6.600;2023-03-01T11:43:02;23.17;;;20.00;;
59770;SDS011;45649;53.014;6.600;2023-03-01T11:53:59;22.27;;;19.27;;
59770;SDS011;45649;53.014;6.600;2023-03-01T12:21:27;16.37;;;14.53;;
59770;SDS011;45649;53.014;6.600;2023-03-01T12:29:30;15.97;;;14.27;;
59770;SDS011;45649;53.014;6.600;2023-03-01T12:33:05;17.00;;;14.63;;
59770;SDS011;45649;53.014;6.600;2023-03-01T12:37:54;16.27;;;14.57;;
59770;SDS011;45649;53.014;6.600;2023-03-01T12:43:28;17.43;;;15.50;;
59770;SDS011;45649;53.014;6.600;2023-03-01T12:51:50;18.00;;;15.10;;
59770;SDS011;45649;53.014;6.600;2023-03-01T12:54:27;17.90;;;15.30;;
59770;SDS011;45649;53.014;6.600;2023-03-01T12:56:56;19.93;;;15.87;;
59770;SDS011;45649;53.014;6.600;2023-03-01T12:59:33;19.10;;;16.50;;
59770;SDS011;45649;53.014;6.600;2023-03-01T13:05:24;18.43;;;16.53;;
59770;SDS011;45649;53.014;6.600;2023-03-01T13:08:08;19.47;;;17.40;;
59770;SDS011;45649;53.014;6.600;2023-03-01T13:10:55;19.33;;;16.70;;
59770;SDS011;45649;53.014;6.600;2023-03-01T13:13:27;18.50;;;16.50;;
59770;SDS011;45649;53.014;6.600;2023-03-01T13:15:54;21.57;;;17.63;;
59770;SDS011;45649;53.014;6.600;2023-03-01T13:20:53;20.73;;;17.30;;
59770;SDS011;45649;53.014;6.600;2023-03-01T13:33:47;20.03;;;17.97;;
59770;SDS011;45649;53.014;6.600;2023-03-01T13:36:45;22.67;;;18.13;;
59770;SDS011;45649;53.014;6.600;2023-03-01T13:39:02;20.80;;;17.70;;
59770;SDS011;45649;53.014;6.600;2023-03-01T13:47:37;18.90;;;16.90;;
59770;SDS011;45649;53.014;6.600;2023-03-01T13:49:43;19.13;;;16.93;;
59770;SDS011;45649;53.014;6.600;2023-03-01T13:52:39;18.70;;;16.30;;
59770;SDS011;45649;53.014;6.600;2023-03-01T13:57:40;19.67;;;17.53;;
59770;SDS011;45649;53.014;6.600;2023-03-01T14:03:11;19.13;;;16.97;;
59770;SDS011;45649;53.014;6.600;2023-03-01T14:05:42;18.73;;;16.73;;
59770;SDS011;45649;53.014;6.600;2023-03-01T14:08:28;19.63;;;17.37;;
59770;SDS011;45649;53.014;6.600;2023-03-01T14:20:01;17.87;;;15.97;;
59770;SDS011;45649;53.014;6.600;2023-03-01T14:22:34;18.47;;;16.47;;
59770;SDS011;45649;53.014;6.600;2023-03-01T14:30:45;18.23;;;15.97;;
59770;SDS011;45649;53.014;6.600;2023-03-01T14:33:28;17.93;;;15.03;;
59770;SDS011;45649;53.014;6.600;2023-03-01T14:38:44;16.27;;;14.60;;
59770;SDS011;45649;53.014;6.600;2023-03-01T14:41:17;16.20;;;14.47;;
59770;SDS011;45649;53.014;6.600;2023-03-01T14:43:53;17.03;;;14.20;;
59770;SDS011;45649;53.014;6.600;2023-03-01T14:46:41;14.43;;;12.93;;
59770;SDS011;45649;53.014;6.600;2023-03-01T14:49:17;15.53;;;13.93;;
59770;SDS011;45649;53.014;6.600;2023-03-01T14:51:51;15.60;;;14.00;;
59770;SDS011;45649;53.014;6.600;2023-03-01T14:57:01;16.83;;;15.13;;
59770;SDS011;45649;53.014;6.600;2023-03-01T14:59:27;16.13;;;14.20;;
59770;SDS011;45649;53.014;6.600;2023-03-01T15:01:54;16.50;;;14.90;;
59770;SDS011;45649;53.014;6.600;2023-03-01T15:04:23;16.43;;;14.73;;
59770;SDS011;45649;53.014;6.600;2023-03-01T15:06:51;18.10;;;16.20;;
59770;SDS011;45649;53.014;6.600;2023-03-01T15:09:20;17.57;;;15.70;;
59770;SDS011;45649;53.014;6.600;2023-03-01T15:11:47;17.80;;;16.00;;
59770;SDS011;45649;53.014;6.600;2023-03-01T15:14:36;18.33;;;16.37;;
59770;SDS011;45649;53.014;6.600;2023-03-01T15:17:23;19.40;;;15.83;;
59770;SDS011;45649;53.014;6.600;2023-03-01T15:19:57;18.07;;;16.17;;
59770;SDS011;45649;53.014;6.600;2023-03-01T15:22:24;18.30;;;16.37;;
59770;SDS011;45649;53.014;6.600;2023-03-01T15:24:51;19.00;;;16.83;;
59770;SDS011;45649;53.014;6.600;2023-03-01T15:27:19;18.83;;;16.83;;
59770;SDS011;45649;53.014;6.600;2023-03-01T15:29:51;18.90;;;17.07;;
59770;SDS011;45649;53.014;6.600;2023-03-01T15:34:59;19.00;;;16.40;;
59770;SDS011;45649;53.014;6.600;2023-03-01T15:37:38;20.00;;;17.40;;
59770;SDS011;45649;53.014;6.600;2023-03-01T15:42:59;18.97;;;16.97;;
59770;SDS011;45649;53.014;6.600;2023-03-01T15:45:27;19.03;;;16.97;;
59770;SDS011;45649;53.014;6.600;2023-03-01T15:47:58;20.77;;;17.53;;
59770;SDS011;45649;53.014;6.600;2023-03-01T15:50:31;18.83;;;16.83;;
59770;SDS011;45649;53.014;6.600;2023-03-01T15:52:59;21.13;;;18.13;;
59770;SDS011;45649;53.014;6.600;2023-03-01T15:55:30;19.30;;;17.20;;
59770;SDS011;45649;53.014;6.600;2023-03-01T15:58:19;19.10;;;16.90;;
59770;SDS011;45649;53.014;6.600;2023-03-01T16:00:48;19.63;;;17.13;;
59770;SDS011;45649;53.014;6.600;2023-03-01T16:03:21;21.87;;;17.47;;
59770;SDS011;45649;53.014;6.600;2023-03-01T16:05:48;18.17;;;16.27;;
59770;SDS011;45649;53.014;6.600;2023-03-01T16:08:14;20.17;;;17.33;;
59770;SDS011;45649;53.014;6.600;2023-03-01T16:10:41;18.07;;;16.17;;
59770;SDS011;45649;53.014;6.600;2023-03-01T16:13:10;18.67;;;15.93;;
59770;SDS011;45649;53.014;6.600;2023-03-01T16:15:39;19.53;;;17.43;;
59770;SDS011;45649;53.014;6.600;2023-03-01T16:18:06;19.53;;;16.93;;
59770;SDS011;45649;53.014;6.600;2023-03-01T16:20:33;19.43;;;17.43;;
59770;SDS011;45649;53.014;6.600;2023-03-01T16:22:59;19.67;;;17.40;;
59770;SDS011;45649;53.014;6.600;2023-03-01T16:25:27;21.50;;;18.30;;
59770;SDS011;45649;53.014;6.600;2023-03-01T16:27:54;19.83;;;17.73;;
59770;SDS011;45649;53.014;6.600;2023-03-01T16:30:21;20.47;;;18.23;;
59770;SDS011;45649;53.014;6.600;2023-03-01T16:32:48;19.80;;;17.73;;
59770;SDS011;45649;53.014;6.600;2023-03-01T16:35:15;20.37;;;18.27;;
59770;SDS011;45649;53.014;6.600;2023-03-01T16:37:43;21.37;;;18.97;;
59770;SDS011;45649;53.014;6.600;2023-03-01T16:42:54;20.17;;;17.63;;
59770;SDS011;45649;53.014;6.600;2023-03-01T16:45:24;21.20;;;18.77;;
59770;SDS011;45649;53.014;6.600;2023-03-01T16:47:52;19.80;;;17.57;;
59770;SDS011;45649;53.014;6.600;2023-03-01T16:50:18;20.50;;;18.30;;
59770;SDS011;45649;53.014;6.600;2023-03-01T16:52:44;21.13;;;18.80;;
59770;SDS011;45649;53.014;6.600;2023-03-01T16:55:10;19.73;;;17.63;;
59770;SDS011;45649;53.014;6.600;2023-03-01T16:57:37;21.20;;;18.30;;
59770;SDS011;45649;53.014;6.600;2023-03-01T17:00:06;22.10;;;17.93;;
59770;SDS011;45649;53.014;6.600;2023-03-01T17:02:35;19.90;;;17.73;;
59770;SDS011;45649;53.014;6.600;2023-03-01T17:05:02;21.17;;;18.07;;
59770;SDS011;45649;53.014;6.600;2023-03-01T17:07:29;20.10;;;17.80;;
59770;SDS011;45649;53.014;6.600;2023-03-01T17:09:58;18.03;;;16.10;;
59770;SDS011;45649;53.014;6.600;2023-03-01T17:12:25;15.83;;;12.03;;
59770;SDS011;45649;53.014;6.600;2023-03-01T17:14:50;21.97;;;17.87;;
59770;SDS011;45649;53.014;6.600;2023-03-01T17:17:16;21.50;;;19.17;;
59770;SDS011;45649;53.014;6.600;2023-03-01T17:19:42;21.30;;;18.83;;